Time;durP1;ratioP1;P1;durP2;ratioP2;P2;SDS_P1;SDS_P2;PMS_P1;PMS_P2;Temp;Humidity;BMP_temperature;BMP_pressure;BME280_temperature;BME280_humidity;BME280_pressure;Samples;Min_cycle;Max_cycle;Signal;HPM_P1;HPM_P2
2023/12/14 00:04:07;;;;;;;;;;;;;;;17.54;47.56;98706.31;10328308;28;946;-71
2023/12/14 00:09:02;;;;;;;;;;;;;;;17.51;47.37;98715.25;10328795;28;950;-71
2023/12/14 00:13:58;;;;;;;;;;;;;;;17.52;47.37;98738.00;10327859;28;1890;-71
2023/12/14 00:18:54;;;;;;;;;;;;;;;17.52;47.41;98735.38;10328903;28;889;-71
2023/12/14 00:23:50;;;;;;;;;;;;;;;17.51;47.46;98740.75;10328333;28;859;-71
2023/12/14 00:28:46;;;;;;;;;;;;;;;17.50;47.63;98750.44;10326726;28;1151;-71
2023/12/14 00:33:42;;;;;;;;;;;;;;;17.49;47.55;98754.00;10327075;28;1951;-71
2023/12/14 00:38:39;;;;;;;;;;;;;;;17.47;47.57;98761.16;10328086;28;1144;-71
2023/12/14 00:43:36;;;;;;;;;;;;;;;17.48;47.61;98769.91;10327384;28;795;-71
2023/12/14 00:48:31;;;;;;;;;;;;;;;17.46;47.52;98792.88;10325979;28;1046;-71
2023/12/14 00:53:27;;;;;;;;;;;;;;;17.46;47.53;98798.97;10326753;28;1902;-71
2023/12/14 00:58:23;;;;;;;;;;;;;;;17.44;47.61;98815.81;10326283;28;766;-72
2023/12/14 01:03:19;;;;;;;;;;;;;;;17.41;47.42;98811.56;10327326;28;865;-71
2023/12/14 01:08:15;;;;;;;;;;;;;;;17.42;47.70;98817.66;10326326;28;1142;-72
2023/12/14 01:13:11;;;;;;;;;;;;;;;17.43;47.55;98835.19;10325798;28;1882;-70
2023/12/14 01:18:07;;;;;;;;;;;;;;;17.42;47.54;98844.00;10325180;28;858;-71
2023/12/14 01:23:03;;;;;;;;;;;;;;;17.40;47.50;98852.03;10325647;28;818;-71
2023/12/14 01:28:00;;;;;;;;;;;;;;;17.40;47.45;98867.81;10325803;28;850;-70
2023/12/14 01:32:55;;;;;;;;;;;;;;;17.41;47.57;98869.50;10325650;28;1886;-71
2023/12/14 01:37:51;;;;;;;;;;;;;;;17.42;47.44;98886.16;10326096;28;1344;-71
2023/12/14 01:42:47;;;;;;;;;;;;;;;17.40;47.50;98894.16;10325433;28;819;-71
2023/12/14 01:47:43;;;;;;;;;;;;;;;17.38;47.43;98911.00;10325172;28;806;-70
2023/12/14 01:52:39;;;;;;;;;;;;;;;17.39;47.66;98916.16;10324970;28;1906;-71
2023/12/14 01:57:35;;;;;;;;;;;;;;;17.40;47.38;98923.16;10325110;28;867;-71
2023/12/14 02:02:31;;;;;;;;;;;;;;;17.39;47.62;98931.13;10325432;28;847;-71
2023/12/14 02:07:26;;;;;;;;;;;;;;;17.38;47.60;98938.19;10325546;28;909;-71
2023/12/14 02:12:22;;;;;;;;;;;;;;;17.37;47.57;98948.78;10324609;28;1906;-71
2023/12/14 02:17:18;;;;;;;;;;;;;;;17.37;47.51;98952.28;10325154;28;814;-71
2023/12/14 02:22:14;;;;;;;;;;;;;;;17.37;47.56;98957.56;10328783;28;1225;-71
2023/12/14 02:27:10;;;;;;;;;;;;;;;17.38;47.46;98968.94;10332128;28;872;-71
2023/12/14 02:32:06;;;;;;;;;;;;;;;17.36;47.44;98976.06;10332438;28;1961;-70
2023/12/14 02:37:02;;;;;;;;;;;;;;;17.34;47.54;98988.47;10331734;28;1246;-70
2023/12/14 02:41:58;;;;;;;;;;;;;;;17.35;47.56;98998.94;10330993;28;893;-71
2023/12/14 02:46:54;;;;;;;;;;;;;;;17.36;47.53;99012.94;10331354;28;959;-71
2023/12/14 02:51:49;;;;;;;;;;;;;;;17.35;47.44;99016.53;10331725;28;1969;-71
2023/12/14 02:56:45;;;;;;;;;;;;;;;17.31;47.61;99029.84;10331661;28;952;-70
2023/12/14 03:01:41;;;;;;;;;;;;;;;17.31;47.36;99040.38;10330867;28;798;-70
2023/12/14 03:06:37;;;;;;;;;;;;;;;17.33;47.47;99045.56;10330099;28;1130;-71
2023/12/14 03:11:33;;;;;;;;;;;;;;;17.35;47.40;99058.69;10330460;28;1890;-71
2023/12/14 03:16:29;;;;;;;;;;;;;;;17.33;47.39;99060.53;10330328;28;866;-71
2023/12/14 03:21:25;;;;;;;;;;;;;;;17.30;47.62;99061.53;10330717;28;842;-71
2023/12/14 03:26:20;;;;;;;;;;;;;;;17.32;47.46;99067.59;10329998;28;970;-70
2023/12/14 03:31:16;;;;;;;;;;;;;;;17.32;47.32;99064.94;10329281;28;1019;-70
2023/12/14 03:36:12;;;;;;;;;;;;;;;17.32;47.29;99075.50;10329696;28;1965;-71
2023/12/14 03:41:08;;;;;;;;;;;;;;;17.30;47.44;99082.63;10329958;28;955;-71
2023/12/14 03:46:06;;;;;;;;;;;;;;;17.29;47.51;99088.78;10329170;28;874;-71
2023/12/14 03:51:01;;;;;;;;;;;;;;;17.30;47.33;99091.34;10329473;28;861;-71
2023/12/14 03:55:57;;;;;;;;;;;;;;;17.30;47.51;99111.59;10329251;28;1983;-71
2023/12/14 04:00:53;;;;;;;;;;;;;;;17.28;47.41;99116.91;10328506;28;1003;-71
2023/12/14 04:05:49;;;;;;;;;;;;;;;17.26;47.36;99139.84;10328345;28;818;-71
2023/12/14 04:10:45;;;;;;;;;;;;;;;17.27;47.40;99135.44;10328151;28;871;-71
2023/12/14 04:15:41;;;;;;;;;;;;;;;17.28;47.39;99148.53;10328453;28;1905;-71
2023/12/14 04:20:37;;;;;;;;;;;;;;;17.27;47.52;99159.16;10327076;28;1060;-71
2023/12/14 04:25:33;;;;;;;;;;;;;;;17.26;47.30;99173.25;10327531;28;874;-71
2023/12/14 04:30:28;;;;;;;;;;;;;;;17.25;47.51;99185.56;10327478;28;767;-71
2023/12/14 04:35:24;;;;;;;;;;;;;;;17.28;47.33;99195.09;10327528;28;1909;-70
2023/12/14 04:40:20;;;;;;;;;;;;;;;17.29;47.15;99192.41;10327477;28;849;-70
2023/12/14 04:45:16;;;;;;;;;;;;;;;17.32;47.27;99199.28;10326691;28;947;-71
2023/12/14 04:50:12;;;;;;;;;;;;;;;17.39;46.77;99218.25;10327193;28;808;-71
2023/12/14 04:55:08;;;;;;;;;;;;;;;17.37;47.10;99214.84;10326930;28;1969;-71
2023/12/14 05:00:04;;;;;;;;;;;;;;;17.41;46.93;99217.25;10326339;28;863;-71
2023/12/14 05:05:00;;;;;;;;;;;;;;;17.46;46.83;99219.66;10326191;28;778;-71
2023/12/14 05:09:56;;;;;;;;;;;;;;;17.45;46.97;99239.06;10326656;28;792;-71
2023/12/14 05:14:52;;;;;;;;;;;;;;;17.47;46.83;99243.28;10325948;28;1898;-71
2023/12/14 05:19:48;;;;;;;;;;;;;;;17.51;46.83;99249.28;10325756;28;957;-71
2023/12/14 05:24:44;;;;;;;;;;;;;;;17.50;46.88;99244.91;10326696;28;854;-71
2023/12/14 05:29:40;;;;;;;;;;;;;;;17.54;46.63;99259.66;10325850;28;861;-71
2023/12/14 05:34:36;;;;;;;;;;;;;;;17.58;46.71;99265.63;10325291;28;1967;-71
2023/12/14 05:39:31;;;;;;;;;;;;;;;17.57;46.76;99266.56;10326141;28;1028;-71
2023/12/14 05:44:27;;;;;;;;;;;;;;;17.61;46.70;99281.31;10325269;28;821;-71
2023/12/14 05:49:23;;;;;;;;;;;;;;;17.62;46.60;99283.00;10325181;28;842;-71
2023/12/14 05:54:20;;;;;;;;;;;;;;;17.58;46.54;99295.47;10326678;28;1969;-71
2023/12/14 05:59:16;;;;;;;;;;;;;;;17.62;46.61;99302.28;10333909;28;922;-70
2023/12/14 06:04:13;;;;;;;;;;;;;;;17.63;46.46;99303.13;10333501;28;1636;-71
2023/12/14 06:09:09;;;;;;;;;;;;;;;17.62;46.64;99317.25;10332942;28;918;-71
2023/12/14 06:14:05;;;;;;;;;;;;;;;17.62;46.53;99317.25;10332645;28;1897;-71
2023/12/14 06:19:01;;;;;;;;;;;;;;;17.65;46.93;99325.00;10332499;28;834;-71
2023/12/14 06:23:58;;;;;;;;;;;;;;;17.63;46.51;99346.19;10332044;28;1003;-71
2023/12/14 06:28:54;;;;;;;;;;;;;;;17.66;46.33;99353.09;10332977;28;852;-71
2023/12/14 06:33:50;;;;;;;;;;;;;;;17.69;46.41;99352.94;10332415;28;1898;-73
2023/12/14 06:38:46;;;;;;;;;;;;;;;17.69;46.60;99369.59;10332542;28;885;-74
2023/12/14 06:43:42;;;;;;;;;;;;;;;17.72;46.53;99372.06;10332139;28;1111;-72
2023/12/14 06:48:38;;;;;;;;;;;;;;;17.77;46.24;99376.28;10332015;28;782;-73
2023/12/14 06:53:34;;;;;;;;;;;;;;;17.79;46.28;99390.22;10330556;28;1977;-71
2023/12/14 06:58:30;;;;;;;;;;;;;;;17.77;46.56;99403.50;10331307;28;878;-72
2023/12/14 07:03:25;;;;;;;;;;;;;;;17.77;46.39;99418.47;10330878;28;774;-72
2023/12/14 07:08:21;;;;;;;;;;;;;;;17.78;46.56;99430.69;10329943;28;857;-71
2023/12/14 07:13:17;;;;;;;;;;;;;;;17.73;46.49;99433.56;10330483;28;1878;-73
2023/12/14 07:18:13;;;;;;;;;;;;;;;17.69;46.82;99453.09;10330309;28;767;-72
2023/12/14 07:23:09;;;;;;;;;;;;;;;17.61;46.83;99464.00;10330129;28;899;-72
2023/12/14 07:28:05;;;;;;;;;;;;;;;17.59;46.82;99472.91;10329973;28;759;-72
2023/12/14 07:33:01;;;;;;;;;;;;;;;17.59;46.92;99483.44;10330150;28;1966;-72
2023/12/14 07:37:56;;;;;;;;;;;;;;;17.63;46.72;99495.53;10330065;28;1263;-71
2023/12/14 07:42:53;;;;;;;;;;;;;;;17.65;46.93;99501.59;10329306;28;2064;-75
2023/12/14 07:47:49;;;;;;;;;;;;;;;17.63;46.87;99503.44;10329731;28;959;-72
2023/12/14 07:52:45;;;;;;;;;;;;;;;17.67;46.85;99516.41;10329401;28;1979;-71
2023/12/14 07:57:41;;;;;;;;;;;;;;;17.69;47.12;99529.53;10329527;28;826;-72
2023/12/14 08:02:37;;;;;;;;;;;;;;;17.73;46.97;99539.00;10328514;28;940;-73
2023/12/14 08:07:33;;;;;;;;;;;;;;;17.72;47.02;99538.13;10327745;28;1176;-72
2023/12/14 08:12:29;;;;;;;;;;;;;;;17.74;47.21;99554.75;10328146;28;1950;-72
2023/12/14 08:17:25;;;;;;;;;;;;;;;17.74;47.15;99573.19;10328608;28;850;-72
2023/12/14 08:22:21;;;;;;;;;;;;;;;17.77;46.93;99585.38;10328366;28;843;-72
2023/12/14 08:27:17;;;;;;;;;;;;;;;17.77;46.92;99597.72;10325306;28;1050;-73
2023/12/14 08:32:13;;;;;;;;;;;;;;;17.80;46.96;99608.16;10327031;28;1897;-72
2023/12/14 08:37:09;;;;;;;;;;;;;;;17.79;47.06;99607.31;10325962;28;1231;-72
2023/12/14 08:42:05;;;;;;;;;;;;;;;17.80;46.78;99616.91;10327581;28;933;-72
2023/12/14 08:47:03;;;;;;;;;;;;;;;17.81;46.88;99623.03;10327380;28;787;-71
2023/12/14 08:51:59;;;;;;;;;;;;;;;17.82;46.76;99638.78;10327091;28;1914;-72
2023/12/14 08:56:55;;;;;;;;;;;;;;;17.80;46.99;99642.44;10326540;28;783;-72
2023/12/14 09:01:51;;;;;;;;;;;;;;;17.84;46.65;99654.53;10326413;28;961;-75
2023/12/14 09:06:46;;;;;;;;;;;;;;;17.84;46.83;99668.59;10326251;28;830;-75
2023/12/14 09:11:42;;;;;;;;;;;;;;;17.81;46.95;99673.13;10325909;28;1898;-74
2023/12/14 09:16:38;;;;;;;;;;;;;;;17.74;47.03;99686.56;10325922;28;783;-72
2023/12/14 09:21:34;;;;;;;;;;;;;;;17.68;47.28;99691.22;10325781;28;857;-73
2023/12/14 09:26:30;;;;;;;;;;;;;;;17.59;47.29;99695.13;10326212;28;917;-76
2023/12/14 09:31:26;;;;;;;;;;;;;;;17.55;47.25;99703.22;10324745;28;906;-72
2023/12/14 09:36:22;;;;;;;;;;;;;;;17.62;46.85;99713.44;10325741;28;1977;-71
2023/12/14 09:41:19;;;;;;;;;;;;;;;17.64;46.87;99735.31;10325916;28;846;-71
2023/12/14 09:46:15;;;;;;;;;;;;;;;17.64;46.80;99745.03;10325850;28;884;-71
2023/12/14 09:51:10;;;;;;;;;;;;;;;17.66;46.49;99751.94;10324522;28;953;-71
2023/12/14 09:56:06;;;;;;;;;;;;;;;17.67;46.59;99750.16;10324318;28;1967;-71
2023/12/14 10:01:04;;;;;;;;;;;;;;;17.69;46.71;99757.06;10325014;28;755;-71
2023/12/14 10:06:01;;;;;;;;;;;;;;;17.72;46.59;99762.22;10324836;28;850;-71
2023/12/14 10:10:57;;;;;;;;;;;;;;;17.71;46.50;99773.69;10324925;28;898;-71
2023/12/14 10:15:53;;;;;;;;;;;;;;;17.77;46.46;99780.47;10324616;28;1894;-71
2023/12/14 10:20:49;;;;;;;;;;;;;;;17.77;46.45;99783.13;10324590;28;948;-71
2023/12/14 10:25:45;;;;;;;;;;;;;;;17.74;46.54;99781.47;10324481;28;921;-71
2023/12/14 10:30:41;;;;;;;;;;;;;;;17.80;46.22;99795.34;10324337;28;903;-71
2023/12/14 10:35:37;;;;;;;;;;;;;;;17.79;46.50;99798.84;10324389;28;1882;-71
2023/12/14 10:40:33;;;;;;;;;;;;;;;17.80;46.39;99798.81;10324214;28;930;-71
2023/12/14 10:45:29;;;;;;;;;;;;;;;17.80;46.49;99798.81;10331551;28;822;-71
2023/12/14 10:50:25;;;;;;;;;;;;;;;17.82;46.29;99804.06;10332835;28;857;-71
2023/12/14 10:55:20;;;;;;;;;;;;;;;17.80;46.30;99813.78;10331492;28;1971;-71
2023/12/14 11:00:16;;;;;;;;;;;;;;;17.83;46.29;99813.66;10331023;28;866;-71
2023/12/14 11:05:15;;;;;;;;;;;;;;;17.83;46.33;99824.22;10331466;28;799;-71
2023/12/14 11:10:14;;;;;;;;;;;;;;;17.83;46.41;99826.84;10331255;28;869;-71
2023/12/14 11:15:10;;;;;;;;;;;;;;;17.85;46.29;99840.81;10330406;28;2301;-71
2023/12/14 11:20:06;;;;;;;;;;;;;;;17.81;46.41;99845.34;10330071;28;914;-72
2023/12/14 11:25:02;;;;;;;;;;;;;;;17.83;46.32;99846.16;10330157;28;895;-72
2023/12/14 11:29:58;;;;;;;;;;;;;;;17.86;46.34;99867.13;10330642;28;775;-72
2023/12/14 11:34:54;;;;;;;;;;;;;;;17.85;46.34;99883.88;10329124;28;1957;-75
2023/12/14 11:39:50;;;;;;;;;;;;;;;17.86;46.22;99887.34;10330286;28;912;-72
2023/12/14 11:44:46;;;;;;;;;;;;;;;17.88;46.20;99889.00;10330297;28;892;-71
2023/12/14 11:49:42;;;;;;;;;;;;;;;17.90;46.47;99887.19;10326021;28;1164;-72
2023/12/14 11:54:38;;;;;;;;;;;;;;;17.84;46.41;99898.00;10328452;28;1977;-72
2023/12/14 11:59:34;;;;;;;;;;;;;;;17.70;46.81;99902.91;10328124;28;837;-72
2023/12/14 12:04:30;;;;;;;;;;;;;;;17.65;46.94;99894.34;10329046;28;906;-72
2023/12/14 12:09:26;;;;;;;;;;;;;;;17.62;47.20;99899.72;10327636;28;984;-72
2023/12/14 12:14:22;;;;;;;;;;;;;;;17.62;46.89;99892.69;10328047;28;1901;-73
2023/12/14 12:19:18;;;;;;;;;;;;;;;17.62;46.97;99902.38;10327259;28;883;-72
2023/12/14 12:24:13;;;;;;;;;;;;;;;17.59;46.91;99908.63;10327478;28;949;-73
2023/12/14 12:29:09;;;;;;;;;;;;;;;17.61;46.88;99911.22;10326883;28;886;-78
2023/12/14 12:34:05;;;;;;;;;;;;;;;17.60;46.67;99915.59;10326928;28;1902;-71
2023/12/14 12:39:03;;;;;;;;;;;;;;;17.56;46.91;99910.53;10326760;28;858;-72
2023/12/14 12:44:05;;;;;;;;;;;;;;;17.59;46.82;99902.50;10326755;28;886;-72
2023/12/14 12:49:01;;;;;;;;;;;;;;;17.58;46.85;99912.19;10326463;28;842;-72
2023/12/14 12:53:57;;;;;;;;;;;;;;;17.56;46.90;99913.16;10325641;28;1914;-72
2023/12/14 12:58:53;;;;;;;;;;;;;;;17.59;46.73;99910.41;10325924;28;767;-73
2023/12/14 13:03:49;;;;;;;;;;;;;;;17.57;46.72;99923.63;10322719;28;1033;-72
2023/12/14 13:08:45;;;;;;;;;;;;;;;17.56;46.84;99927.19;10325754;28;955;-72
2023/12/14 13:13:43;;;;;;;;;;;;;;;17.58;46.67;99932.38;10325845;28;1965;-72
2023/12/14 13:18:39;;;;;;;;;;;;;;;17.56;46.88;99943.00;10325669;28;771;-73
2023/12/14 13:23:35;;;;;;;;;;;;;;;17.53;46.78;99944.00;10325764;28;774;-72
2023/12/14 13:28:31;;;;;;;;;;;;;;;17.57;46.85;99954.41;10326241;28;896;-73
2023/12/14 13:33:27;;;;;;;;;;;;;;;17.54;46.86;99976.47;10325778;28;1901;-72
2023/12/14 13:38:22;;;;;;;;;;;;;;;17.53;46.77;99969.50;10326079;28;1152;-73
2023/12/14 13:43:18;;;;;;;;;;;;;;;17.56;46.62;99986.97;10326573;28;837;-73
2023/12/14 13:48:14;;;;;;;;;;;;;;;17.52;46.75;100000.22;10325327;28;925;-72
2023/12/14 13:53:10;;;;;;;;;;;;;;;17.55;46.84;100001.91;10324992;28;1975;-72
2023/12/14 13:58:06;;;;;;;;;;;;;;;17.53;46.79;100016.94;10324761;28;933;-71
2023/12/14 14:03:03;;;;;;;;;;;;;;;17.52;46.78;100036.28;10324703;28;1155;-72
2023/12/14 14:07:59;;;;;;;;;;;;;;;17.53;46.67;100043.28;10325331;28;914;-72
2023/12/14 14:12:56;;;;;;;;;;;;;;;17.53;46.58;100041.50;10325287;28;1894;-72
2023/12/14 14:17:53;;;;;;;;;;;;;;;17.51;46.78;100061.78;10329551;28;973;-71
2023/12/14 14:22:49;;;;;;;;;;;;;;;17.49;46.84;100060.97;10332223;28;832;-71
2023/12/14 14:27:46;;;;;;;;;;;;;;;17.53;46.65;100074.91;10332934;28;830;-71
2023/12/14 14:32:42;;;;;;;;;;;;;;;17.51;46.79;100080.22;10331754;28;1969;-71
2023/12/14 14:37:39;;;;;;;;;;;;;;;17.50;46.60;100099.59;10331375;28;1175;-72
2023/12/14 14:42:35;;;;;;;;;;;;;;;17.52;46.71;100110.06;10332128;28;874;-72
2023/12/14 14:47:31;;;;;;;;;;;;;;;17.49;46.89;100115.47;10331840;28;897;-72
2023/12/14 14:52:27;;;;;;;;;;;;;;;17.50;46.79;100128.59;10330978;28;1969;-71
2023/12/14 14:57:23;;;;;;;;;;;;;;;17.59;46.50;100137.94;10330273;28;1231;-78
2023/12/14 15:02:19;;;;;;;;;;;;;;;17.71;46.58;100142.78;10331333;28;881;-71
2023/12/14 15:07:15;;;;;;;;;;;;;;;17.60;46.93;100144.91;10330478;28;937;-79
2023/12/14 15:12:11;;;;;;;;;;;;;;;17.79;46.40;100145.16;10330959;28;1949;-70
2023/12/14 15:17:07;;;;;;;;;;;;;;;17.74;46.67;100147.06;10330886;28;880;-70
2023/12/14 15:22:02;;;;;;;;;;;;;;;17.57;46.91;100149.44;10330676;28;819;-72
2023/12/14 15:26:58;;;;;;;;;;;;;;;17.47;46.95;100159.44;10329152;28;795;-71
2023/12/14 15:31:54;;;;;;;;;;;;;;;17.46;47.04;100166.50;10329779;28;1918;-70
2023/12/14 15:36:50;;;;;;;;;;;;;;;17.62;46.69;100168.59;10329588;28;1258;-70
2023/12/14 15:41:46;;;;;;;;;;;;;;;17.65;46.72;100179.03;10329957;28;899;-70
2023/12/14 15:46:42;;;;;;;;;;;;;;;17.66;46.72;100178.97;10329892;28;892;-70
2023/12/14 15:51:38;;;;;;;;;;;;;;;17.70;46.89;100185.84;10329645;28;876;-69
2023/12/14 15:56:34;;;;;;;;;;;;;;;17.71;46.68;100195.50;10328681;28;1968;-70
2023/12/14 16:01:30;;;;;;;;;;;;;;;17.73;46.73;100204.19;10328508;28;906;-70
2023/12/14 16:06:25;;;;;;;;;;;;;;;17.75;46.72;100209.41;10328252;28;1556;-70
2023/12/14 16:11:21;;;;;;;;;;;;;;;17.76;46.67;100216.41;10329072;28;818;-70
2023/12/14 16:16:17;;;;;;;;;;;;;;;17.83;46.37;100217.94;10327803;28;1903;-70
2023/12/14 16:21:13;;;;;;;;;;;;;;;17.82;46.71;100234.69;10327876;28;779;-70
2023/12/14 16:26:09;;;;;;;;;;;;;;;17.86;46.49;100236.28;10327412;28;1554;-69
2023/12/14 16:31:05;;;;;;;;;;;;;;;17.86;46.58;100249.47;10327943;28;921;-70
2023/12/14 16:36:01;;;;;;;;;;;;;;;17.90;46.48;100258.16;10327076;28;1890;-71
2023/12/14 16:40:57;;;;;;;;;;;;;;;17.71;46.96;100279.88;10326210;28;860;-72
2023/12/14 16:45:53;;;;;;;;;;;;;;;17.65;47.16;100281.84;10327593;28;874;-71
2023/12/14 16:50:53;;;;;;;;;;;;;;;17.58;47.17;100286.47;10326517;28;991;-71
2023/12/14 16:55:50;;;;;;;;;;;;;;;17.59;47.00;100293.47;10327083;28;1914;-71
2023/12/14 17:00:46;;;;;;;;;;;;;;;17.60;47.02;100307.50;10325856;28;778;-71
2023/12/14 17:05:42;;;;;;;;;;;;;;;17.59;46.99;100313.69;10326230;28;895;-71
2023/12/14 17:10:38;;;;;;;;;;;;;;;17.59;46.91;100325.09;10326137;28;863;-71
2023/12/14 17:15:34;;;;;;;;;;;;;;;17.59;46.87;100330.34;10326118;28;1893;-71
2023/12/14 17:20:30;;;;;;;;;;;;;;;17.56;47.03;100330.47;10326710;28;862;-71
2023/12/14 17:25:26;;;;;;;;;;;;;;;17.57;46.72;100341.88;10326276;28;783;-71
2023/12/14 17:30:21;;;;;;;;;;;;;;;17.58;46.97;100355.00;10325678;28;852;-71
2023/12/14 17:35:19;;;;;;;;;;;;;;;17.56;46.99;100353.34;10325815;28;1913;-71
2023/12/14 17:40:15;;;;;;;;;;;;;;;17.59;46.82;100363.78;10325409;28;914;-71
2023/12/14 17:45:10;;;;;;;;;;;;;;;17.57;46.72;100374.34;10325359;28;820;-71
2023/12/14 17:50:06;;;;;;;;;;;;;;;17.58;46.69;100378.72;10326022;28;873;-71
2023/12/14 17:55:02;;;;;;;;;;;;;;;17.60;46.79;100384.78;10333556;28;1972;-68
2023/12/14 17:59:58;;;;;;;;;;;;;;;17.59;46.85;100400.69;10333556;28;894;-71
2023/12/14 18:04:54;;;;;;;;;;;;;;;17.57;46.77;100407.75;10333328;28;947;-71
2023/12/14 18:09:50;;;;;;;;;;;;;;;17.61;46.69;100407.63;10333106;28;861;-71
2023/12/14 18:14:46;;;;;;;;;;;;;;;17.58;46.78;100412.13;10333429;28;1894;-71
2023/12/14 18:19:42;;;;;;;;;;;;;;;17.58;46.74;100420.03;10333325;28;842;-71
2023/12/14 18:24:38;;;;;;;;;;;;;;;17.61;46.68;100425.22;10333124;28;893;-70
2023/12/14 18:29:34;;;;;;;;;;;;;;;17.58;46.57;100434.09;10333082;28;864;-71
2023/12/14 18:34:30;;;;;;;;;;;;;;;17.58;46.58;100435.84;10331556;28;1953;-71
2023/12/14 18:39:26;;;;;;;;;;;;;;;17.61;46.63;100441.03;10331318;28;992;-71
2023/12/14 18:44:22;;;;;;;;;;;;;;;17.57;46.68;100448.16;10332275;28;857;-71
2023/12/14 18:49:18;;;;;;;;;;;;;;;17.59;46.76;100462.16;10331555;28;888;-71
2023/12/14 18:54:14;;;;;;;;;;;;;;;17.59;46.60;100464.81;10331752;28;1914;-70
2023/12/14 18:59:10;;;;;;;;;;;;;;;17.59;46.48;100472.72;10331806;28;802;-70
2023/12/14 19:04:06;;;;;;;;;;;;;;;17.59;46.63;100487.66;10330701;28;888;-71
2023/12/14 19:09:02;;;;;;;;;;;;;;;17.59;46.50;100495.56;10330845;28;885;-71
2023/12/14 19:13:57;;;;;;;;;;;;;;;17.57;46.55;100500.88;10331498;28;1901;-71
2023/12/14 19:18:54;;;;;;;;;;;;;;;17.60;46.67;100513.09;10330801;28;834;-71
2023/12/14 19:23:50;;;;;;;;;;;;;;;17.61;46.49;100520.97;10329727;28;854;-70
2023/12/14 19:28:46;;;;;;;;;;;;;;;17.56;46.50;100514.97;10330774;28;861;-70
2023/12/14 19:33:42;;;;;;;;;;;;;;;17.58;46.54;100521.09;10330532;28;1902;-70
2023/12/14 19:38:38;;;;;;;;;;;;;;;17.59;46.54;100527.22;10330814;28;1414;-71
2023/12/14 19:43:35;;;;;;;;;;;;;;;17.57;46.57;100529.88;10330201;28;786;-71
2023/12/14 19:48:31;;;;;;;;;;;;;;;17.60;46.48;100526.28;10330040;28;1709;-70
2023/12/14 19:53:27;;;;;;;;;;;;;;;17.60;46.47;100526.28;10329731;28;1919;-70
2023/12/14 19:58:23;;;;;;;;;;;;;;;17.58;46.43;100531.63;10328977;28;754;-71
2023/12/14 20:03:19;;;;;;;;;;;;;;;17.60;46.40;100537.69;10328744;28;800;-70
2023/12/14 20:08:21;;;;;;;;;;;;;;;17.61;46.56;100552.63;10329166;28;865;-71
2023/12/14 20:13:17;;;;;;;;;;;;;;;17.59;46.29;100549.16;10328682;28;1879;-71
2023/12/14 20:18:13;;;;;;;;;;;;;;;17.64;46.32;100564.84;10328149;28;882;-71
2023/12/14 20:23:09;;;;;;;;;;;;;;;17.62;46.39;100561.38;10327909;28;822;-71
2023/12/14 20:28:05;;;;;;;;;;;;;;;17.58;46.71;100568.53;10328406;28;869;-71
2023/12/14 20:33:02;;;;;;;;;;;;;;;17.62;46.34;100570.16;10328107;28;1957;-71
2023/12/14 20:37:58;;;;;;;;;;;;;;;17.62;46.42;100574.56;10327583;28;1144;-71
2023/12/14 20:42:54;;;;;;;;;;;;;;;17.58;46.46;100586.97;10327118;28;889;-70
2023/12/14 20:47:50;;;;;;;;;;;;;;;17.55;46.44;100589.69;10326989;28;853;-70
2023/12/14 20:52:46;;;;;;;;;;;;;;;17.53;46.52;100597.66;10326703;28;1965;-70
2023/12/14 20:57:41;;;;;;;;;;;;;;;17.53;46.36;100588.88;10327442;28;826;-70
2023/12/14 21:02:38;;;;;;;;;;;;;;;17.52;46.48;100600.31;10327436;28;786;-70
2023/12/14 21:07:34;;;;;;;;;;;;;;;17.47;46.46;100603.06;10326256;28;904;-70
2023/12/14 21:12:30;;;;;;;;;;;;;;;17.50;46.55;100600.38;10326101;28;1953;-70
2023/12/14 21:17:26;;;;;;;;;;;;;;;17.52;46.26;100606.44;10325996;28;936;-70
2023/12/14 21:22:21;;;;;;;;;;;;;;;17.51;46.35;100622.31;10325857;28;933;-71
2023/12/14 21:32:32;;;;;;;;;;;;;;;17.49;46.29;100624.13;10325290;28;1898;-71
2023/12/14 21:37:28;;;;;;;;;;;;;;;17.53;46.32;100628.44;10325749;28;1527;-70
2023/12/14 21:42:24;;;;;;;;;;;;;;;17.50;46.20;100633.75;10325474;28;929;-71
2023/12/14 21:47:19;;;;;;;;;;;;;;;17.49;46.38;100634.69;10324746;28;918;-71
2023/12/14 21:52:15;;;;;;;;;;;;;;;17.47;46.20;100636.47;10325145;28;1918;-71
2023/12/14 21:57:11;;;;;;;;;;;;;;;17.46;46.44;100648.81;10324505;28;786;-71
2023/12/14 22:02:07;;;;;;;;;;;;;;;17.48;46.25;100651.41;10324483;28;855;-71
2023/12/14 22:07:03;;;;;;;;;;;;;;;17.46;46.14;100654.06;10325535;28;802;-70
2023/12/14 22:11:59;;;;;;;;;;;;;;;17.46;46.41;100653.22;10324872;28;798;-71
2023/12/14 22:16:55;;;;;;;;;;;;;;;17.43;46.44;100661.22;10324651;28;2022;-71
2023/12/14 22:21:51;;;;;;;;;;;;;;;17.40;46.30;100663.94;10325257;28;771;-71
2023/12/14 22:26:47;;;;;;;;;;;;;;;17.37;46.53;100661.34;10324515;28;890;-71
2023/12/14 22:31:43;;;;;;;;;;;;;;;17.38;46.39;100669.22;10324460;28;973;-70
2023/12/14 22:36:39;;;;;;;;;;;;;;;17.42;46.38;100680.53;10326075;28;1975;-71
2023/12/14 22:41:34;;;;;;;;;;;;;;;17.39;46.41;100688.53;10332479;28;893;-71
2023/12/14 22:46:30;;;;;;;;;;;;;;;17.35;46.24;100697.44;10331739;28;884;-71
2023/12/14 22:51:26;;;;;;;;;;;;;;;17.34;46.54;100688.66;10332079;28;843;-71
2023/12/14 22:56:23;;;;;;;;;;;;;;;17.33;46.42;100681.66;10331877;28;1965;-71
2023/12/14 23:01:19;;;;;;;;;;;;;;;17.37;46.44;100692.97;10331734;28;847;-71
2023/12/14 23:06:15;;;;;;;;;;;;;;;17.33;46.36;100709.78;10331599;28;849;-71
2023/12/14 23:11:11;;;;;;;;;;;;;;;17.30;46.45;100716.88;10330779;28;969;-71
2023/12/14 23:16:06;;;;;;;;;;;;;;;17.30;46.51;100716.88;10330049;28;1965;-70
2023/12/14 23:21:02;;;;;;;;;;;;;;;17.35;46.36;100719.38;10330482;28;868;-71
2023/12/14 23:25:58;;;;;;;;;;;;;;;17.31;46.33;100715.09;10330316;28;770;-71
2023/12/14 23:30:54;;;;;;;;;;;;;;;17.29;46.39;100720.41;10330014;28;1738;-71
2023/12/14 23:35:50;;;;;;;;;;;;;;;17.25;46.33;100734.56;10330012;28;1953;-70
2023/12/14 23:40:46;;;;;;;;;;;;;;;17.29;46.41;100741.50;10329726;28;947;-70
2023/12/14 23:45:42;;;;;;;;;;;;;;;17.30;46.31;100734.44;10330058;28;798;-71
2023/12/14 23:50:38;;;;;;;;;;;;;;;17.26;46.39;100733.66;10329022;28;768;-70
2023/12/14 23:55:33;;;;;;;;;;;;;;;17.23;46.50;100732.88;10329021;28;1980;-70
